Terminal Aerodrome Forecast
Issued by NWS

Current Version | Previous Version | Graphics & Text | Print | Product List | Glossary On
Versions: 1 2 3 4 5 6 7 8 9 10 11 12 13 14 15 16 17 18 19 20 21 22 23
814
FTUS41 KILN 201743
TAFLUK
TAF
KLUK 201743Z 2018/2118 26005KT P6SM SCT040
     FM210100 00000KT P6SM FEW050
     FM210500 00000KT 3SM BR FEW050
     FM210900 00000KT 1SM BR FEW040 BKN200
     FM211300 12003KT P6SM SCT040 BKN200=

USA.gov is the U.S. government's official web portal to all federal, state and local government web resources and services.